This is the latest recevied weather packets stored in our database for station/object OE3REE-13. If no packets are shown the sender has not sent any weather packets the latest 10 day(s).
| Time | Temp. | Humidity | Pressure | Rain* | Wind** | Luminosity | Snow |
|---|---|---|---|---|---|---|---|
| 1777343426 | 4.44° C | 84% | 1024 hPa | 0 mm | - | 0 W/m² | - |
| 1777333822 | 6.11° C | 81% | 1024.2 hPa | 0 mm | - | 0 W/m² | - |
| 1777329632 | 6.67° C | 77% | 1024.3 hPa | 0 mm | - | 0 W/m² | - |
| 1777326031 | 8.33° C | 69% | 1024.4 hPa | 0 mm | - | 0 W/m² | - |
| 1777323626 | 9.44° C | 65% | 1024.6 hPa | 0 mm | - | 0 W/m² | - |
| 1777323021 | 10° C | 62% | 1024.6 hPa | 0 mm | - | 0 W/m² | - |
| 1777320044 | 11.67° C | 55% | 1024.6 hPa | 0 mm | - | 0 W/m² | - |
| 1777318825 | 12.22° C | 52% | 1024.8 hPa | 0 mm | - | 0 W/m² | - |
| 1777314032 | 15.56° C | 40% | 1024.4 hPa | 0 mm | - | 0 W/m² | - |
| 1777308069 | 21.11° C | 26% | 1024.3 hPa | 0 mm | - | 99 W/m² | - |
| 1777307421 | 20° C | 27% | 1024.4 hPa | 0 mm | - | 120 W/m² | - |
| 1777305621 | 21.11° C | 24% | 1024.4 hPa | 0 mm | - | 116 W/m² | - |
| 1777305016 | 21.11° C | 23% | 1024.6 hPa | 0 mm | - | 142 W/m² | - |
| 1777303840 | 22.22° C | 21% | 1024.7 hPa | 0 mm | - | 173 W/m² | - |
| 1777301429 | 22.78° C | 20% | 1025 hPa | 0 mm | - | 372 W/m² | - |
| 1777300865 | 22.22° C | 20% | 1025.1 hPa | 0 mm | - | 416 W/m² | - |
| 1777299630 | 22.78° C | 20% | 1025.2 hPa | 0 mm | - | 501 W/m² | - |
| 1777299027 | 22.78° C | 21% | 1025.4 hPa | 0 mm | - | 455 W/m² | - |
| 1777298420 | 22.22° C | 21% | 1025.4 hPa | 0 mm | - | 461 W/m² | - |
| 1777294819 | 22.78° C | 20% | 1026.1 hPa | 0 mm | - | 677 W/m² | - |
| 1777293641 | 22.22° C | 22% | 1026.3 hPa | 0 mm | - | 708 W/m² | - |
| 1777293051 | 21.67° C | 22% | 1026.4 hPa | 0 mm | - | 717 W/m² | - |
| 1777287026 | 20° C | 25% | 1027.2 hPa | 0 mm | - | 750 W/m² | - |
| 1777286445 | 20° C | 25% | 1027.3 hPa | 0 mm | - | 744 W/m² | - |
| 1777282862 | 19.44° C | 31% | 1027.9 hPa | 0 mm | - | 689 W/m² | - |
* Rain latest hour (hover to see other rain measurements)
** Current wind speed in m/s (hover to see current wind gust speed)